createdAt,value
2018-12-19T00:00:45.173Z,18.33
2018-12-19T00:03:14.323Z,18.35
2018-12-19T00:05:43.673Z,18.33
2018-12-19T00:08:13.722Z,18.30
2018-12-19T00:10:44.144Z,18.26
2018-12-19T00:13:18.405Z,18.27
2018-12-19T00:15:47.635Z,18.25
2018-12-19T00:18:16.809Z,18.23
2018-12-19T00:20:48.678Z,18.20
2018-12-19T00:23:17.675Z,18.16
2018-12-19T00:25:47.930Z,18.17
2018-12-19T00:28:17.170Z,18.12
2018-12-19T00:30:46.206Z,18.14
2018-12-19T00:33:14.982Z,18.15
2018-12-19T00:35:44.645Z,18.08
2018-12-19T00:38:14.033Z,18.12
2018-12-19T00:40:43.364Z,18.23
2018-12-19T00:43:12.565Z,18.20
2018-12-19T00:45:41.520Z,18.11
2018-12-19T00:48:10.554Z,18.07
2018-12-19T00:50:39.679Z,18.05
2018-12-19T00:53:08.985Z,18.06
2018-12-19T00:55:37.829Z,18.04
2018-12-19T00:58:06.818Z,17.99
2018-12-19T01:00:35.702Z,17.99
2018-12-19T01:03:04.593Z,18.00
2018-12-19T01:05:33.444Z,17.95
2018-12-19T01:08:02.403Z,17.95
2018-12-19T01:10:31.677Z,17.97
2018-12-19T01:13:01.303Z,17.92
2018-12-19T01:15:30.282Z,18.03
2018-12-19T01:17:59.214Z,18.11
2018-12-19T01:20:28.416Z,18.00
2018-12-19T01:22:57.744Z,17.97
2018-12-19T01:25:27.882Z,17.94
2018-12-19T01:27:57.002Z,17.93
2018-12-19T01:30:26.142Z,17.92
2018-12-19T01:32:55.181Z,17.90
2018-12-19T01:35:24.127Z,17.88
2018-12-19T01:37:52.938Z,17.88
2018-12-19T01:40:25.101Z,17.88
2018-12-19T01:42:54.223Z,17.86
2018-12-19T01:45:23.037Z,17.82
2018-12-19T01:47:53.030Z,17.79
2018-12-19T01:50:21.753Z,17.81
2018-12-19T01:52:50.624Z,17.88
2018-12-19T01:55:19.660Z,17.98
2018-12-19T01:57:48.549Z,17.94
2018-12-19T02:00:17.496Z,17.87
2018-12-19T02:02:46.681Z,17.86
2018-12-19T02:05:16.213Z,17.83
2018-12-19T02:07:45.103Z,17.81
2018-12-19T02:10:14.293Z,17.82
2018-12-19T02:12:43.160Z,17.78
2018-12-19T02:15:12.001Z,17.80
2018-12-19T02:17:41.565Z,17.87
2018-12-19T02:20:10.492Z,17.90
2018-12-19T02:22:39.612Z,17.94
2018-12-19T02:25:08.465Z,17.93
2018-12-19T02:27:37.343Z,17.87
2018-12-19T02:30:07.003Z,17.83
2018-12-19T02:32:35.889Z,17.85
2018-12-19T02:35:04.638Z,17.82
2018-12-19T02:37:34.011Z,17.80
2018-12-19T02:40:02.937Z,17.77
2018-12-19T02:42:31.706Z,17.78
2018-12-19T02:45:01.038Z,17.79
2018-12-19T02:47:29.817Z,17.77
2018-12-19T02:50:00.164Z,17.74
2018-12-19T02:52:28.961Z,17.72
2018-12-19T02:54:58.490Z,17.87
2018-12-19T02:57:27.326Z,17.89
2018-12-19T02:59:56.452Z,17.92
2018-12-19T03:02:25.208Z,17.84
2018-12-19T03:04:55.090Z,17.84
2018-12-19T03:07:24.041Z,17.79
2018-12-19T03:09:52.818Z,17.78
2018-12-19T03:12:21.758Z,17.78
2018-12-19T03:14:50.511Z,17.78
2018-12-19T03:17:19.538Z,17.79
2018-12-19T03:19:48.314Z,17.78
2018-12-19T03:22:17.704Z,17.74
2018-12-19T03:24:46.449Z,17.73
2018-12-19T03:27:15.180Z,17.71
2018-12-19T03:29:43.990Z,17.76
2018-12-19T03:32:12.706Z,17.79
2018-12-19T03:34:41.945Z,17.84
2018-12-19T03:37:10.671Z,17.89
2018-12-19T03:39:39.516Z,17.86
2018-12-19T03:42:08.454Z,17.79
2018-12-19T03:44:37.219Z,17.85
2018-12-19T03:47:06.338Z,17.82
2018-12-19T03:49:36.110Z,17.79
2018-12-19T03:52:04.826Z,17.73
2018-12-19T03:54:33.793Z,17.74
2018-12-19T03:57:04.649Z,17.71
2018-12-19T03:59:33.773Z,17.72
2018-12-19T04:02:02.617Z,17.69
2018-12-19T04:04:31.685Z,17.68
2018-12-19T04:07:00.618Z,17.72
2018-12-19T04:09:29.726Z,17.75
2018-12-19T04:11:59.207Z,17.83
2018-12-19T04:14:28.139Z,17.85
2018-12-19T04:16:56.965Z,17.79
2018-12-19T04:19:25.792Z,17.77
2018-12-19T04:21:54.540Z,17.74
2018-12-19T04:24:24.886Z,17.72
2018-12-19T04:26:53.929Z,17.69
2018-12-19T04:29:22.805Z,17.69
2018-12-19T04:31:51.571Z,17.68
2018-12-19T04:34:21.203Z,17.71
2018-12-19T04:36:50.213Z,17.66
2018-12-19T04:39:19.098Z,17.63
2018-12-19T04:41:48.537Z,17.63
2018-12-19T04:44:18.040Z,17.71
2018-12-19T04:46:46.738Z,17.77
2018-12-19T04:49:15.649Z,17.83
2018-12-19T04:51:44.445Z,17.82
2018-12-19T04:54:13.199Z,17.76
2018-12-19T04:56:41.993Z,17.72
2018-12-19T04:59:11.683Z,17.70
2018-12-19T05:01:41.281Z,17.69
2018-12-19T05:04:10.346Z,17.67
2018-12-19T05:06:39.354Z,17.70
2018-12-19T05:09:09.039Z,17.64
2018-12-19T05:11:38.197Z,17.65
2018-12-19T05:14:06.994Z,17.63
2018-12-19T05:16:36.396Z,17.62
2018-12-19T05:19:06.073Z,17.64
2018-12-19T05:21:34.973Z,17.58
2018-12-19T05:24:04.045Z,17.57
2018-12-19T05:26:33.601Z,17.52
2018-12-19T05:29:02.403Z,17.50
2018-12-19T05:31:31.236Z,17.61
2018-12-19T05:34:01.212Z,17.70
2018-12-19T05:36:29.993Z,17.74
2018-12-19T05:38:58.871Z,17.76
2018-12-19T05:41:27.568Z,17.85
2018-12-19T05:43:56.449Z,17.81
2018-12-19T05:46:25.567Z,17.78
2018-12-19T05:48:55.625Z,17.67
2018-12-19T05:51:24.339Z,17.78
2018-12-19T05:53:53.060Z,18.03
2018-12-19T05:56:21.785Z,18.08
2018-12-19T05:58:51.120Z,17.85
2018-12-19T06:01:19.859Z,17.90
2018-12-19T06:03:48.796Z,18.13
2018-12-19T06:06:18.366Z,18.20
2018-12-19T06:08:47.314Z,18.32
2018-12-19T06:11:16.666Z,18.23
2018-12-19T06:13:46.040Z,18.14
2018-12-19T06:16:14.901Z,18.23
2018-12-19T06:18:44.191Z,18.23
2018-12-19T06:21:13.008Z,18.33
2018-12-19T06:23:41.993Z,18.30
2018-12-19T06:26:11.081Z,18.47
2018-12-19T06:28:39.813Z,18.71
2018-12-19T06:31:09.249Z,18.67
2018-12-19T06:33:39.020Z,18.64
2018-12-19T06:36:07.969Z,18.74
2018-12-19T06:38:50.597Z,18.66
2018-12-19T06:41:34.506Z,18.67
2018-12-19T06:44:04.491Z,18.73
2018-12-19T06:46:33.419Z,18.81
2018-12-19T06:49:03.074Z,18.97
2018-12-19T06:51:33.074Z,19.00
2018-12-19T06:54:02.082Z,19.06
2018-12-19T06:56:31.177Z,18.95
2018-12-19T06:59:01.206Z,18.98
2018-12-19T07:01:31.336Z,19.02
2018-12-19T07:04:00.166Z,19.14
2018-12-19T07:06:29.077Z,19.23
2018-12-19T07:08:57.969Z,19.21
2018-12-19T07:11:26.813Z,19.23
2018-12-19T07:13:55.620Z,19.31
2018-12-19T07:16:24.645Z,19.28
2018-12-19T07:18:53.395Z,19.27
2018-12-19T07:21:22.837Z,19.26
2018-12-19T07:23:51.598Z,19.38
2018-12-19T07:26:20.896Z,19.31
2018-12-19T07:28:50.344Z,19.22
2018-12-19T07:31:19.284Z,19.41
2018-12-19T07:33:48.350Z,19.51
2018-12-19T07:36:18.097Z,19.54
2018-12-19T07:38:47.179Z,19.63
2018-12-19T07:41:16.782Z,19.60
2018-12-19T07:43:45.506Z,19.66
2018-12-19T07:46:19.658Z,19.65
2018-12-19T07:48:45.599Z,19.62
2018-12-19T07:51:14.365Z,19.63
2018-12-19T07:53:43.774Z,19.73
2018-12-19T07:56:14.446Z,19.70
2018-12-19T07:58:45.109Z,19.77
2018-12-19T08:01:13.996Z,19.84
2018-12-19T08:03:43.090Z,19.91
2018-12-19T08:06:19.427Z,19.88
2018-12-19T08:08:48.804Z,19.97
2018-12-19T08:11:17.864Z,19.98
2018-12-19T08:13:46.573Z,19.99
2018-12-19T08:16:15.766Z,20.05
2018-12-19T08:18:45.273Z,20.05
2018-12-19T08:21:15.493Z,20.05
2018-12-19T08:23:44.540Z,20.09
2018-12-19T08:26:13.328Z,20.04
2018-12-19T08:28:43.564Z,20.10
2018-12-19T08:31:12.783Z,20.13
2018-12-19T08:33:41.696Z,20.16
2018-12-19T08:36:12.010Z,20.17
2018-12-19T08:38:42.045Z,20.17
2018-12-19T08:41:10.869Z,20.19
2018-12-19T08:43:39.902Z,20.20
2018-12-19T08:46:14.535Z,20.22
2018-12-19T08:48:40.917Z,20.23
2018-12-19T08:51:13.257Z,20.20
2018-12-19T08:53:42.089Z,20.27
2018-12-19T08:56:11.307Z,20.30
2018-12-19T08:58:45.967Z,20.29
2018-12-19T09:01:24.462Z,20.28
2018-12-19T09:03:53.250Z,20.27
2018-12-19T09:06:24.528Z,20.30
2018-12-19T09:08:54.529Z,20.27
2018-12-19T09:11:23.459Z,20.31
2018-12-19T09:13:52.260Z,20.30
2018-12-19T09:16:22.280Z,20.23
2018-12-19T09:18:51.296Z,20.31
2018-12-19T09:21:20.168Z,20.21
2018-12-19T09:23:49.570Z,20.23
2018-12-19T09:26:18.578Z,20.25
2018-12-19T09:28:47.533Z,20.29
2018-12-19T09:31:17.010Z,20.31
2018-12-19T09:33:45.900Z,20.30
2018-12-19T09:36:14.820Z,20.34
2018-12-19T09:38:43.657Z,20.33
2018-12-19T09:41:13.408Z,20.32
2018-12-19T09:43:42.849Z,20.36
2018-12-19T09:46:13.271Z,20.37
2018-12-19T09:48:43.469Z,20.36
2018-12-19T09:51:12.624Z,20.35
2018-12-19T09:53:41.739Z,20.41
2018-12-19T09:56:12.366Z,20.37
2018-12-19T09:58:41.976Z,20.32
2018-12-19T10:01:13.867Z,20.30
2018-12-19T10:03:44.436Z,20.37
2018-12-19T10:06:15.275Z,20.38
2018-12-19T10:08:44.233Z,20.36
2018-12-19T10:11:18.628Z,20.39
2018-12-19T10:13:44.357Z,20.44
2018-12-19T10:16:13.659Z,20.47
2018-12-19T10:18:42.548Z,20.43
2018-12-19T10:21:11.293Z,20.44
2018-12-19T10:23:40.126Z,20.41
2018-12-19T10:26:12.827Z,20.42
2018-12-19T10:28:41.866Z,20.43
2018-12-19T10:31:10.969Z,20.41
2018-12-19T10:33:39.704Z,20.37
2018-12-19T10:36:08.419Z,20.36
2018-12-19T10:38:37.737Z,20.36
2018-12-19T10:41:06.599Z,20.33
2018-12-19T10:43:35.542Z,20.30
2018-12-19T10:46:04.617Z,20.20
2018-12-19T10:48:33.558Z,20.24
2018-12-19T10:51:02.417Z,20.10
2018-12-19T10:53:31.243Z,20.18
2018-12-19T10:56:00.165Z,20.21
2018-12-19T10:58:28.981Z,20.28
2018-12-19T11:01:01.051Z,20.32
2018-12-19T11:03:29.889Z,20.37
2018-12-19T11:05:59.354Z,20.38
2018-12-19T11:08:28.068Z,20.37
2018-12-19T11:10:56.926Z,20.31
2018-12-19T11:13:26.103Z,20.33
2018-12-19T11:15:55.382Z,20.39
2018-12-19T11:18:25.336Z,20.40
2018-12-19T11:20:54.579Z,20.44
2018-12-19T11:23:23.540Z,20.47
2018-12-19T11:25:54.208Z,20.39
2018-12-19T11:28:23.275Z,20.40
2018-12-19T11:30:52.738Z,20.47
2018-12-19T11:33:22.185Z,20.56
2018-12-19T11:35:51.035Z,20.56
2018-12-19T11:38:20.419Z,20.46
2018-12-19T11:40:49.159Z,20.53
2018-12-19T11:43:18.142Z,20.55
2018-12-19T11:45:48.421Z,20.61
2018-12-19T11:48:17.438Z,20.63
2018-12-19T11:50:46.403Z,20.68
2018-12-19T11:53:16.240Z,20.66
2018-12-19T11:55:45.033Z,20.67
2018-12-19T11:58:15.626Z,20.64
2018-12-19T12:00:48.058Z,20.70
2018-12-19T12:03:17.416Z,20.66
2018-12-19T12:05:46.382Z,20.71
2018-12-19T12:08:16.160Z,20.77
2018-12-19T12:10:45.299Z,20.75
2018-12-19T12:13:14.587Z,20.79
2018-12-19T12:15:43.603Z,20.81
2018-12-19T12:18:12.468Z,20.88
2018-12-19T12:20:41.309Z,20.92
2018-12-19T12:25:47.398Z,20.87
2018-12-19T12:28:16.573Z,20.90
2018-12-19T12:30:45.566Z,20.97
2018-12-19T12:33:14.748Z,20.99
2018-12-19T12:35:44.298Z,21.01
2018-12-19T12:38:13.582Z,21.00
2018-12-19T12:40:43.706Z,20.97
2018-12-19T12:43:14.046Z,20.98
2018-12-19T12:45:43.075Z,21.04
2018-12-19T12:48:13.098Z,21.05
2018-12-19T12:50:42.357Z,21.05
2018-12-19T12:53:12.806Z,21.07
2018-12-19T12:55:43.308Z,21.06
2018-12-19T12:58:12.335Z,21.00
2018-12-19T13:00:41.839Z,21.03
2018-12-19T13:03:11.627Z,21.05
2018-12-19T13:05:40.527Z,21.07
2018-12-19T13:08:09.688Z,21.06
2018-12-19T13:10:40.480Z,21.08
2018-12-19T13:13:09.756Z,21.08
2018-12-19T13:15:44.162Z,21.12
2018-12-19T13:18:14.666Z,21.08
2018-12-19T13:20:44.363Z,21.08
2018-12-19T13:23:13.328Z,21.09
2018-12-19T13:25:44.434Z,21.13
2018-12-19T13:28:14.432Z,21.15
2018-12-19T13:30:43.712Z,21.13
2018-12-19T13:33:12.806Z,21.15
2018-12-19T13:35:42.120Z,21.14
2018-12-19T13:38:11.856Z,21.21
2018-12-19T13:40:42.762Z,21.26
2018-12-19T13:43:12.714Z,21.20
2018-12-19T13:45:41.730Z,21.01
2018-12-19T13:48:10.633Z,20.92
2018-12-19T13:50:41.965Z,20.89
2018-12-19T13:53:12.572Z,20.91
2018-12-19T13:55:42.093Z,20.88
2018-12-19T13:58:10.956Z,20.86
2018-12-19T14:00:39.871Z,20.81
2018-12-19T14:03:08.976Z,20.80
2018-12-19T14:05:38.804Z,20.78
2018-12-19T14:08:07.718Z,20.79
2018-12-19T14:10:36.651Z,20.72
2018-12-19T14:13:05.962Z,20.73
2018-12-19T14:15:34.829Z,20.65
2018-12-19T14:18:04.072Z,20.62
2018-12-19T14:20:32.983Z,20.61
2018-12-19T14:23:01.888Z,20.58
2018-12-19T14:25:30.771Z,20.53
2018-12-19T14:28:00.105Z,20.48
2018-12-19T14:30:29.206Z,20.42
2018-12-19T14:32:58.018Z,20.40
2018-12-19T14:35:28.154Z,20.37
2018-12-19T14:37:57.360Z,20.35
2018-12-19T14:40:26.729Z,20.32
2018-12-19T14:42:55.577Z,20.28
2018-12-19T14:45:24.556Z,20.21
2018-12-19T14:47:53.426Z,20.18
2018-12-19T14:50:23.259Z,20.16
2018-12-19T14:52:52.198Z,20.12
2018-12-19T14:55:21.793Z,20.02
2018-12-19T14:57:50.634Z,20.03
2018-12-19T15:00:19.726Z,19.99
2018-12-19T15:02:49.486Z,19.75
2018-12-19T15:05:20.503Z,19.70
2018-12-19T15:07:49.731Z,19.71
2018-12-19T15:10:18.990Z,19.74
2018-12-19T15:12:47.835Z,19.75
2018-12-19T15:15:16.729Z,19.78
2018-12-19T15:17:45.617Z,19.78
2018-12-19T15:20:15.365Z,19.80
2018-12-19T15:22:44.218Z,19.72
2018-12-19T15:25:13.821Z,19.65
2018-12-19T15:27:42.713Z,19.65
2018-12-19T15:30:11.615Z,19.70
2018-12-19T15:32:41.590Z,19.70
2018-12-19T15:35:10.462Z,19.70
2018-12-19T15:37:39.306Z,19.71
2018-12-19T15:40:09.337Z,19.71
2018-12-19T15:42:38.264Z,19.70
2018-12-19T15:45:10.241Z,19.64
2018-12-19T15:47:40.573Z,19.56
2018-12-19T15:50:10.442Z,19.63
2018-12-19T15:52:39.294Z,19.60
2018-12-19T15:55:08.525Z,19.63
2018-12-19T15:57:37.356Z,19.61
2018-12-19T16:00:08.495Z,19.63
2018-12-19T16:02:37.335Z,19.63
2018-12-19T16:05:06.213Z,19.57
2018-12-19T16:07:35.017Z,19.53
2018-12-19T16:10:04.241Z,19.52
2018-12-19T16:12:39.241Z,19.58
2018-12-19T16:15:07.785Z,19.58
2018-12-19T16:17:36.703Z,19.56
2018-12-19T16:20:07.031Z,19.59
2018-12-19T16:22:36.299Z,19.57
2018-12-19T16:25:05.567Z,19.58
2018-12-19T16:27:34.463Z,19.48
2018-12-19T16:30:03.667Z,19.50
2018-12-19T16:32:32.648Z,19.57
2018-12-19T16:35:01.483Z,19.57
2018-12-19T16:37:31.110Z,19.64
2018-12-19T16:40:00.259Z,19.66
2018-12-19T16:42:29.655Z,19.63
2018-12-19T16:44:58.762Z,19.66
2018-12-19T16:47:27.666Z,19.64
2018-12-19T16:49:56.806Z,19.59
2018-12-19T16:52:25.630Z,19.62
2018-12-19T16:54:55.044Z,19.69
2018-12-19T16:57:24.572Z,19.74
2018-12-19T16:59:53.494Z,19.72
2018-12-19T17:02:22.455Z,19.75
2018-12-19T17:04:52.156Z,19.78
2018-12-19T17:07:21.261Z,19.82
2018-12-19T17:09:50.388Z,19.79
2018-12-19T17:12:19.296Z,19.82
2018-12-19T17:14:48.529Z,19.84
2018-12-19T17:17:18.670Z,19.89
2018-12-19T17:19:48.103Z,19.89
2018-12-19T17:22:16.998Z,19.92
2018-12-19T17:24:45.885Z,19.95
2018-12-19T17:27:14.717Z,19.98
2018-12-19T17:29:43.569Z,19.94
2018-12-19T17:32:13.120Z,19.96
2018-12-19T17:34:41.991Z,19.99
2018-12-19T17:37:12.634Z,20.04
2018-12-19T17:39:41.554Z,19.98
2018-12-19T17:42:10.807Z,19.94
2018-12-19T17:44:39.845Z,19.94
2018-12-19T17:47:09.153Z,20.00
2018-12-19T17:49:38.898Z,20.05
2018-12-19T17:52:08.521Z,20.04
2018-12-19T17:54:37.393Z,20.12
2018-12-19T17:57:06.216Z,20.15
2018-12-19T17:59:36.096Z,20.15
2018-12-19T18:02:05.075Z,20.15
2018-12-19T18:04:33.918Z,20.17
2018-12-19T18:07:02.750Z,20.22
2018-12-19T18:09:31.862Z,20.14
2018-12-19T18:12:00.735Z,20.15
2018-12-19T18:14:29.955Z,20.16
2018-12-19T18:16:58.852Z,20.18
2018-12-19T18:19:28.024Z,20.22
2018-12-19T18:21:57.343Z,20.24
2018-12-19T18:24:26.242Z,20.25
2018-12-19T18:26:55.126Z,20.27
2018-12-19T18:29:24.495Z,20.26
2018-12-19T18:31:53.933Z,20.26
2018-12-19T18:34:23.297Z,20.26
2018-12-19T18:36:52.307Z,20.24
2018-12-19T18:39:26.072Z,20.27
2018-12-19T18:41:52.787Z,20.27
2018-12-19T18:44:22.044Z,20.29
2018-12-19T18:46:51.046Z,20.33
2018-12-19T18:49:19.882Z,20.36
2018-12-19T18:51:48.725Z,20.30
2018-12-19T18:54:17.611Z,20.30
2018-12-19T18:56:46.962Z,20.30
2018-12-19T18:59:15.829Z,20.34
2018-12-19T19:01:44.835Z,20.37
2018-12-19T19:04:13.806Z,20.35
2018-12-19T19:06:42.804Z,20.38
2018-12-19T19:09:11.649Z,20.39
2018-12-19T19:11:41.934Z,20.40
2018-12-19T19:14:10.855Z,20.38
2018-12-19T19:16:39.875Z,20.37
2018-12-19T19:19:08.713Z,20.41
2018-12-19T19:21:37.727Z,20.44
2018-12-19T19:24:06.546Z,20.42
2018-12-19T19:26:35.849Z,20.45
2018-12-19T19:29:04.783Z,20.45
2018-12-19T19:31:34.114Z,20.46
2018-12-19T19:34:02.971Z,20.42
2018-12-19T19:36:32.386Z,20.44
2018-12-19T19:39:01.222Z,20.43
2018-12-19T19:41:30.612Z,20.44
2018-12-19T19:43:59.526Z,20.46
2018-12-19T19:46:28.462Z,20.47
2018-12-19T19:48:57.710Z,20.49
2018-12-19T19:51:26.614Z,20.49
2018-12-19T19:53:56.252Z,20.49
2018-12-19T19:56:25.566Z,20.55
2018-12-19T19:58:54.677Z,20.56
2018-12-19T20:01:23.559Z,20.57
2018-12-19T20:03:52.460Z,20.60
2018-12-19T20:06:21.656Z,20.60
2018-12-19T20:08:51.285Z,20.62
2018-12-19T20:11:20.470Z,20.60
2018-12-19T20:13:49.462Z,20.60
2018-12-19T20:16:18.467Z,20.63
2018-12-19T20:18:47.638Z,20.65
2018-12-19T20:21:16.969Z,20.69
2018-12-19T20:23:45.830Z,20.69
2018-12-19T20:26:14.646Z,20.69
2018-12-19T20:28:43.474Z,20.72
2018-12-19T20:31:12.652Z,20.71
2018-12-19T20:33:41.738Z,20.70
2018-12-19T20:36:11.125Z,20.72
2018-12-19T20:38:39.927Z,20.76
2018-12-19T20:41:08.930Z,20.77
2018-12-19T20:43:40.136Z,20.74
2018-12-19T20:46:08.767Z,20.75
2018-12-19T20:48:37.768Z,20.74
2018-12-19T20:51:07.062Z,20.70
2018-12-19T20:53:35.932Z,20.72
2018-12-19T20:56:04.962Z,20.64
2018-12-19T20:58:33.865Z,20.63
2018-12-19T21:01:02.889Z,20.64
2018-12-19T21:03:31.841Z,20.71
2018-12-19T21:06:01.450Z,20.70
2018-12-19T21:08:30.780Z,20.69
2018-12-19T21:10:59.934Z,20.66
2018-12-19T21:13:29.128Z,20.66
2018-12-19T21:15:59.085Z,20.70
2018-12-19T21:18:33.767Z,20.64
2018-12-19T21:21:02.755Z,20.69
2018-12-19T21:23:31.673Z,20.66
2018-12-19T21:26:00.938Z,20.66
2018-12-19T21:28:31.427Z,20.68
2018-12-19T21:31:00.624Z,20.63
2018-12-19T21:33:31.600Z,20.67
2018-12-19T21:36:01.024Z,20.61
2018-12-19T21:38:30.249Z,20.64
2018-12-19T21:41:00.995Z,20.66
2018-12-19T21:43:29.966Z,20.59
2018-12-19T21:45:58.843Z,20.60
2018-12-19T21:48:28.100Z,20.56
2018-12-19T21:50:56.981Z,20.49
2018-12-19T21:53:25.810Z,20.52
2018-12-19T21:55:54.768Z,20.49
2018-12-19T21:58:23.774Z,20.51
2018-12-19T22:00:53.009Z,20.52
2018-12-19T22:03:22.358Z,20.49
2018-12-19T22:05:51.451Z,20.45
2018-12-19T22:08:20.486Z,20.46
2018-12-19T22:10:49.346Z,20.45
2018-12-19T22:13:18.335Z,20.43
2018-12-19T22:15:47.856Z,20.41
2018-12-19T22:18:22.007Z,20.38
2018-12-19T22:20:51.072Z,20.36
2018-12-19T22:23:20.175Z,20.34
2018-12-19T22:25:49.049Z,20.30
2018-12-19T22:28:17.962Z,20.29
2018-12-19T22:30:48.272Z,20.26
2018-12-19T22:33:17.192Z,20.23
2018-12-19T22:35:46.057Z,20.21
2018-12-19T22:38:14.930Z,20.17
2018-12-19T22:40:43.828Z,20.15
2018-12-19T22:43:12.773Z,20.14
2018-12-19T22:45:42.075Z,20.09
2018-12-19T22:48:10.990Z,20.11
2018-12-19T22:50:40.734Z,20.07
2018-12-19T22:53:09.702Z,20.06
2018-12-19T22:55:38.529Z,20.05
2018-12-19T22:58:07.914Z,20.03
2018-12-19T23:02:43.594Z,20.01
2018-12-19T23:05:12.639Z,19.97
2018-12-19T23:07:41.532Z,19.96
2018-12-19T23:10:10.607Z,19.95
2018-12-19T23:12:39.893Z,19.91
2018-12-19T23:15:08.991Z,19.87
2018-12-19T23:17:40.996Z,19.88
2018-12-19T23:20:11.280Z,19.86
2018-12-19T23:22:40.338Z,19.84
2018-12-19T23:25:09.722Z,19.80
2018-12-19T23:27:38.905Z,19.81
2018-12-19T23:30:08.970Z,19.79
2018-12-19T23:32:38.049Z,19.77
2018-12-19T23:35:07.209Z,19.77
2018-12-19T23:37:36.332Z,19.75
2018-12-19T23:40:05.796Z,19.74
2018-12-19T23:42:34.762Z,19.70
2018-12-19T23:45:03.749Z,19.68
2018-12-19T23:47:32.727Z,19.66
2018-12-19T23:50:01.748Z,19.66
2018-12-19T23:52:30.886Z,19.65
2018-12-19T23:54:59.838Z,19.61
2018-12-19T23:57:28.876Z,19.60
2018-12-19T23:59:57.753Z,19.57
